Terminal Aerodrome Forecast
Issued by NWS Charleston, WV

Home | Current Version | Previous Version | Text Only | Print | Product List | Glossary On
Versions: 1 2 3 4 5 6 7 8 9 10 11 12 13 14 15 16 17 18 19 20 21
000
FTUS41 KRLX 050800 AAA
TAFBKW
TAF AMD
KBKW 050854Z 0509/0606 20005KT P6SM SCT100
     FM051600 28008KT P6SM VCTS BKN045CB
     FM060100 VRB03KT P6SM SCT045=

USA.gov is the U.S. government's official web portal to all federal, state and local government web resources and services.